Minot International Airport
KMOT : now visible

Airfield :











YOU CAN JOIN US ON...

 
LOGIN :

Register | Disclaimer

   EN    FR    IT 

 









Legend :    VFR   Marginal VFR   IFR   Intensive IFR   Very Intensive IFR
Visi :
Ceiling :
>= 8 km
>= 3000ft
5 to 8 km
1000 to 3000 ft
1500m to 5 km
500 to 1000 ft
800 to 1500m
200 to 500 ft
< 800m
< 200 ft
Symbols :   Thunderstorms  Fog  Heavy snow  Heavy precipitations  Wind > 20 kt






- Airport Elevation : 1716 ft
- IATA code : MOT


KMOT - Minot International

CURRENT METAR :
  • 171954Z 29012KT 10SM FEW021 OVC029 M03/M08 A2999 RMK AO2 SNE06 SLP181 P0000 T10331083

EXPIRED METARs :
  • 171854Z 31014KT 10SM -SN BKN020 OVC025 M03/M08 A2998 RMK AO2 SNB19E36B53 SLP179 P0000 T10331083
  • 171754Z 30014KT 10SM BKN015 OVC023 M03/M07 A2997 RMK AO2 SLP176 60000 T10281072 11028 21050 53015

TAF KMOT
Valid from the 17 at 21:00 until the 18 at 18:00 UTC


172045Z 1721/1818 30011G18KT P6SM FEW020 BKN025
TEMPO 1723/1801 SCT025 BKN035
FM180100 32009KT P6SM SCT050
FM180400 32006KT 4SM -SN BKN025 OVC035
FM180800 32011KT P6SM SCT020 BKN035
FM181100 32014G22KT P6SM SCT030



MET'MAP, your aeronautical weather chart ! - Copyright ORBIFLY December 2007 - Disclaimer

ORBIFLY MET'MAP TEAM :

Programming & Development : Alexandra Zaïnal
Concept & original design : Baudouin d'Aumeries
Assistance for programming : Marc-Olivier Méhu
Technical & hardware support : Manuel Goepfert

Contact : metmap@orbifly.com




SOURCES & CREDITS :

   NOAA       Earth
Advisory